sensor_id;sensor_type;location;lat;lon;timestamp;temperature;humidity
20985;DHT22;10651;47.552;7.606;2023-04-30T06:15:50;14.30;99.90
20985;DHT22;10651;47.552;7.606;2023-04-30T06:22:08;14.40;99.90
20985;DHT22;10651;47.552;7.606;2023-04-30T06:24:57;14.50;99.90
20985;DHT22;10651;47.552;7.606;2023-04-30T06:27:58;14.60;99.90
20985;DHT22;10651;47.552;7.606;2023-04-30T06:30:36;14.60;99.90
20985;DHT22;10651;47.552;7.606;2023-04-30T06:33:44;14.60;99.90
20985;DHT22;10651;47.552;7.606;2023-04-30T06:36:22;14.60;99.90
20985;DHT22;10651;47.552;7.606;2023-04-30T06:39:09;14.60;99.90
20985;DHT22;10651;47.552;7.606;2023-04-30T06:42:40;14.60;99.90
20985;DHT22;10651;47.552;7.606;2023-04-30T06:45:07;14.70;99.90
20985;DHT22;10651;47.552;7.606;2023-04-30T06:47:33;14.80;99.90
20985;DHT22;10651;47.552;7.606;2023-04-30T06:50:05;14.90;99.90
20985;DHT22;10651;47.552;7.606;2023-04-30T06:58:37;14.90;99.90
20985;DHT22;10651;47.552;7.606;2023-04-30T07:01:03;14.90;99.90
20985;DHT22;10651;47.552;7.606;2023-04-30T07:03:32;15.00;99.90
20985;DHT22;10651;47.552;7.606;2023-04-30T07:06:19;15.00;99.90
20985;DHT22;10651;47.552;7.606;2023-04-30T07:09:03;15.20;99.90
20985;DHT22;10651;47.552;7.606;2023-04-30T07:11:28;15.20;99.90
20985;DHT22;10651;47.552;7.606;2023-04-30T07:13:54;15.10;99.90
20985;DHT22;10651;47.552;7.606;2023-04-30T07:16:23;15.20;99.90
20985;DHT22;10651;47.552;7.606;2023-04-30T07:18:50;15.20;99.90
20985;DHT22;10651;47.552;7.606;2023-04-30T07:21:16;15.20;99.90
20985;DHT22;10651;47.552;7.606;2023-04-30T07:51:11;16.00;99.90
20985;DHT22;10651;47.552;7.606;2023-04-30T07:53:40;16.00;99.90
20985;DHT22;10651;47.552;7.606;2023-04-30T07:56:11;16.00;99.90
20985;DHT22;10651;47.552;7.606;2023-04-30T07:59:23;15.90;99.90
20985;DHT22;10651;47.552;7.606;2023-04-30T08:01:51;16.00;99.90
20985;DHT22;10651;47.552;7.606;2023-04-30T08:07:28;16.30;99.90
20985;DHT22;10651;47.552;7.606;2023-04-30T08:10:41;16.40;99.90
20985;DHT22;10651;47.552;7.606;2023-04-30T08:13:15;16.60;99.90
20985;DHT22;10651;47.552;7.606;2023-04-30T08:15:44;16.80;99.90
20985;DHT22;10651;47.552;7.606;2023-04-30T08:18:15;16.80;99.90
20985;DHT22;10651;47.552;7.606;2023-04-30T08:21:25;16.80;99.90
20985;DHT22;10651;47.552;7.606;2023-04-30T08:27:36;17.30;99.90
20985;DHT22;10651;47.552;7.606;2023-04-30T08:33:37;17.10;99.90
20985;DHT22;10651;47.552;7.606;2023-04-30T08:36:06;17.20;99.90
20985;DHT22;10651;47.552;7.606;2023-04-30T08:38:32;17.30;99.90
20985;DHT22;10651;47.552;7.606;2023-04-30T08:41:10;17.40;99.90
20985;DHT22;10651;47.552;7.606;2023-04-30T08:43:36;17.40;99.90
20985;DHT22;10651;47.552;7.606;2023-04-30T08:46:13;17.50;99.90
20985;DHT22;10651;47.552;7.606;2023-04-30T08:48:56;17.50;99.90
20985;DHT22;10651;47.552;7.606;2023-04-30T08:51:23;17.50;99.90
20985;DHT22;10651;47.552;7.606;2023-04-30T08:53:54;17.60;99.90
20985;DHT22;10651;47.552;7.606;2023-04-30T08:56:22;17.50;99.90
20985;DHT22;10651;47.552;7.606;2023-04-30T08:58:47;17.50;99.90
20985;DHT22;10651;47.552;7.606;2023-04-30T09:01:16;17.40;99.90
20985;DHT22;10651;47.552;7.606;2023-04-30T09:03:42;17.20;99.90
20985;DHT22;10651;47.552;7.606;2023-04-30T09:06:08;17.40;99.90
20985;DHT22;10651;47.552;7.606;2023-04-30T09:08:42;17.70;99.90
20985;DHT22;10651;47.552;7.606;2023-04-30T09:11:29;17.90;99.90
20985;DHT22;10651;47.552;7.606;2023-04-30T09:13:58;18.10;99.90
20985;DHT22;10651;47.552;7.606;2023-04-30T09:16:26;18.20;99.90
20985;DHT22;10651;47.552;7.606;2023-04-30T09:18:52;18.20;99.90
20985;DHT22;10651;47.552;7.606;2023-04-30T09:21:35;18.10;99.90
20985;DHT22;10651;47.552;7.606;2023-04-30T09:24:02;18.10;99.90
20985;DHT22;10651;47.552;7.606;2023-04-30T09:26:37;18.30;99.90
20985;DHT22;10651;47.552;7.606;2023-04-30T09:29:04;18.60;99.90
20985;DHT22;10651;47.552;7.606;2023-04-30T09:31:37;18.90;99.90
20985;DHT22;10651;47.552;7.606;2023-04-30T09:34:04;19.00;99.90
20985;DHT22;10651;47.552;7.606;2023-04-30T09:36:30;18.90;99.90
20985;DHT22;10651;47.552;7.606;2023-04-30T09:39:06;18.90;99.90
20985;DHT22;10651;47.552;7.606;2023-04-30T09:41:35;18.80;99.90
20985;DHT22;10651;47.552;7.606;2023-04-30T09:44:01;18.80;99.90
20985;DHT22;10651;47.552;7.606;2023-04-30T09:46:31;18.90;99.90
20985;DHT22;10651;47.552;7.606;2023-04-30T09:48:59;18.90;99.90
20985;DHT22;10651;47.552;7.606;2023-04-30T09:51:26;19.20;99.90
20985;DHT22;10651;47.552;7.606;2023-04-30T09:53:52;19.90;99.90
20985;DHT22;10651;47.552;7.606;2023-04-30T09:56:25;20.30;99.90
20985;DHT22;10651;47.552;7.606;2023-04-30T09:58:55;20.40;99.90
20985;DHT22;10651;47.552;7.606;2023-04-30T10:01:25;20.40;99.90
20985;DHT22;10651;47.552;7.606;2023-04-30T10:03:52;20.30;99.90
20985;DHT22;10651;47.552;7.606;2023-04-30T10:06:20;20.60;99.90
20985;DHT22;10651;47.552;7.606;2023-04-30T10:08:55;20.60;99.90
20985;DHT22;10651;47.552;7.606;2023-04-30T10:11:27;20.50;99.90
20985;DHT22;10651;47.552;7.606;2023-04-30T10:14:02;20.60;99.90
20985;DHT22;10651;47.552;7.606;2023-04-30T10:19:33;20.50;99.90
20985;DHT22;10651;47.552;7.606;2023-04-30T10:22:01;20.80;99.90
20985;DHT22;10651;47.552;7.606;2023-04-30T10:24:27;20.90;99.90
20985;DHT22;10651;47.552;7.606;2023-04-30T10:26:54;20.60;99.90
20985;DHT22;10651;47.552;7.606;2023-04-30T10:29:21;20.70;99.90
20985;DHT22;10651;47.552;7.606;2023-04-30T10:31:50;20.70;99.90
20985;DHT22;10651;47.552;7.606;2023-04-30T10:37:30;21.20;99.90
20985;DHT22;10651;47.552;7.606;2023-04-30T10:39:56;21.30;99.90
20985;DHT22;10651;47.552;7.606;2023-04-30T10:42:22;21.50;99.90
20985;DHT22;10651;47.552;7.606;2023-04-30T10:44:48;21.30;99.90
20985;DHT22;10651;47.552;7.606;2023-04-30T10:47:15;21.10;99.90
20985;DHT22;10651;47.552;7.606;2023-04-30T10:49:45;20.80;99.90
20985;DHT22;10651;47.552;7.606;2023-04-30T10:52:12;20.90;99.90
20985;DHT22;10651;47.552;7.606;2023-04-30T10:54:39;20.90;99.90
20985;DHT22;10651;47.552;7.606;2023-04-30T10:57:12;20.80;99.90
20985;DHT22;10651;47.552;7.606;2023-04-30T10:59:42;20.80;99.90
20985;DHT22;10651;47.552;7.606;2023-04-30T11:02:10;20.80;99.90
20985;DHT22;10651;47.552;7.606;2023-04-30T11:05:08;20.80;99.90
20985;DHT22;10651;47.552;7.606;2023-04-30T11:07:33;20.70;99.90
20985;DHT22;10651;47.552;7.606;2023-04-30T11:10:00;20.60;99.90
20985;DHT22;10651;47.552;7.606;2023-04-30T11:12:27;20.40;99.90
20985;DHT22;10651;47.552;7.606;2023-04-30T11:15:00;20.40;99.90
20985;DHT22;10651;47.552;7.606;2023-04-30T11:17:31;20.30;99.90
20985;DHT22;10651;47.552;7.606;2023-04-30T11:19:59;20.20;99.90
20985;DHT22;10651;47.552;7.606;2023-04-30T11:22:28;20.10;99.90
20985;DHT22;10651;47.552;7.606;2023-04-30T11:25:12;20.00;99.90
20985;DHT22;10651;47.552;7.606;2023-04-30T11:27:47;20.00;99.90
20985;DHT22;10651;47.552;7.606;2023-04-30T11:30:17;20.00;99.90
20985;DHT22;10651;47.552;7.606;2023-04-30T11:32:45;20.30;99.90
20985;DHT22;10651;47.552;7.606;2023-04-30T11:35:12;20.20;99.90
20985;DHT22;10651;47.552;7.606;2023-04-30T11:37:40;20.00;99.90
20985;DHT22;10651;47.552;7.606;2023-04-30T11:40:23;19.90;99.90
20985;DHT22;10651;47.552;7.606;2023-04-30T11:42:58;19.80;99.90
20985;DHT22;10651;47.552;7.606;2023-04-30T11:58:51;19.90;99.90
20985;DHT22;10651;47.552;7.606;2023-04-30T12:01:29;19.90;99.90
20985;DHT22;10651;47.552;7.606;2023-04-30T12:03:58;19.90;99.90
20985;DHT22;10651;47.552;7.606;2023-04-30T12:06:40;19.90;99.90
20985;DHT22;10651;47.552;7.606;2023-04-30T12:09:12;20.00;99.90
20985;DHT22;10651;47.552;7.606;2023-04-30T12:11:54;20.40;99.90
20985;DHT22;10651;47.552;7.606;2023-04-30T12:14:23;20.70;99.90
20985;DHT22;10651;47.552;7.606;2023-04-30T12:17:14;21.30;99.90
20985;DHT22;10651;47.552;7.606;2023-04-30T12:19:40;21.90;99.90
20985;DHT22;10651;47.552;7.606;2023-04-30T12:22:06;22.00;99.90
20985;DHT22;10651;47.552;7.606;2023-04-30T12:24:32;22.10;99.90
20985;DHT22;10651;47.552;7.606;2023-04-30T12:26:58;22.40;99.90
20985;DHT22;10651;47.552;7.606;2023-04-30T12:29:26;22.90;99.90
20985;DHT22;10651;47.552;7.606;2023-04-30T12:31:57;22.90;99.90
20985;DHT22;10651;47.552;7.606;2023-04-30T12:37:44;22.60;99.90
20985;DHT22;10651;47.552;7.606;2023-04-30T12:40:13;22.20;99.90
20985;DHT22;10651;47.552;7.606;2023-04-30T12:42:41;21.60;99.90
20985;DHT22;10651;47.552;7.606;2023-04-30T12:45:09;21.20;99.90
20985;DHT22;10651;47.552;7.606;2023-04-30T12:47:41;21.00;99.90
20985;DHT22;10651;47.552;7.606;2023-04-30T12:50:11;20.80;99.90
20985;DHT22;10651;47.552;7.606;2023-04-30T12:52:38;20.70;99.90
20985;DHT22;10651;47.552;7.606;2023-04-30T12:55:18;20.80;99.90
20985;DHT22;10651;47.552;7.606;2023-04-30T12:58:09;20.90;99.90
20985;DHT22;10651;47.552;7.606;2023-04-30T13:00:44;21.00;99.90
20985;DHT22;10651;47.552;7.606;2023-04-30T13:03:13;20.80;99.90
20985;DHT22;10651;47.552;7.606;2023-04-30T13:05:50;20.50;99.90
20985;DHT22;10651;47.552;7.606;2023-04-30T13:08:16;20.40;99.90
20985;DHT22;10651;47.552;7.606;2023-04-30T13:10:43;20.20;99.90
20985;DHT22;10651;47.552;7.606;2023-04-30T13:13:10;20.10;99.90
20985;DHT22;10651;47.552;7.606;2023-04-30T13:15:39;20.10;99.90
20985;DHT22;10651;47.552;7.606;2023-04-30T13:18:12;19.90;99.90
20985;DHT22;10651;47.552;7.606;2023-04-30T13:20:40;20.00;99.90
20985;DHT22;10651;47.552;7.606;2023-04-30T13:23:06;20.00;99.90
20985;DHT22;10651;47.552;7.606;2023-04-30T13:25:33;20.00;99.90
20985;DHT22;10651;47.552;7.606;2023-04-30T13:27:59;20.10;99.90
20985;DHT22;10651;47.552;7.606;2023-04-30T13:30:25;20.30;99.90
20985;DHT22;10651;47.552;7.606;2023-04-30T13:32:51;20.40;99.90
20985;DHT22;10651;47.552;7.606;2023-04-30T13:35:17;20.60;99.90
20985;DHT22;10651;47.552;7.606;2023-04-30T13:37:43;21.10;99.90
20985;DHT22;10651;47.552;7.606;2023-04-30T13:40:09;21.10;99.90
20985;DHT22;10651;47.552;7.606;2023-04-30T13:42:41;21.20;99.90
20985;DHT22;10651;47.552;7.606;2023-04-30T13:45:17;21.40;99.90
20985;DHT22;10651;47.552;7.606;2023-04-30T13:47:43;21.20;99.90
20985;DHT22;10651;47.552;7.606;2023-04-30T13:50:09;21.10;99.90
20985;DHT22;10651;47.552;7.606;2023-04-30T13:52:35;20.90;99.90
20985;DHT22;10651;47.552;7.606;2023-04-30T13:55:01;20.70;99.90
20985;DHT22;10651;47.552;7.606;2023-04-30T13:57:29;20.70;99.90
20985;DHT22;10651;47.552;7.606;2023-04-30T13:59:57;20.60;99.90
20985;DHT22;10651;47.552;7.606;2023-04-30T14:02:30;20.40;99.90
20985;DHT22;10651;47.552;7.606;2023-04-30T14:04:56;20.20;99.90
20985;DHT22;10651;47.552;7.606;2023-04-30T14:07:24;20.00;99.90
20985;DHT22;10651;47.552;7.606;2023-04-30T14:09:49;19.90;99.90
20985;DHT22;10651;47.552;7.606;2023-04-30T14:12:15;19.90;99.90
20985;DHT22;10651;47.552;7.606;2023-04-30T14:14:41;19.90;99.90
20985;DHT22;10651;47.552;7.606;2023-04-30T14:17:07;19.80;99.90
20985;DHT22;10651;47.552;7.606;2023-04-30T14:19:33;19.80;99.90
20985;DHT22;10651;47.552;7.606;2023-04-30T14:21:59;19.80;99.90
20985;DHT22;10651;47.552;7.606;2023-04-30T14:24:25;19.70;99.90
20985;DHT22;10651;47.552;7.606;2023-04-30T14:26:50;19.70;99.90
20985;DHT22;10651;47.552;7.606;2023-04-30T14:29:16;19.60;99.90
20985;DHT22;10651;47.552;7.606;2023-04-30T14:31:44;19.50;99.90
20985;DHT22;10651;47.552;7.606;2023-04-30T14:34:48;19.40;99.90
20985;DHT22;10651;47.552;7.606;2023-04-30T14:37:32;19.40;99.90
20985;DHT22;10651;47.552;7.606;2023-04-30T14:39:58;19.30;99.90
20985;DHT22;10651;47.552;7.606;2023-04-30T14:42:26;19.20;99.90
20985;DHT22;10651;47.552;7.606;2023-04-30T14:44:51;19.10;99.90
20985;DHT22;10651;47.552;7.606;2023-04-30T14:47:17;19.00;99.90
20985;DHT22;10651;47.552;7.606;2023-04-30T14:49:44;19.10;99.90
20985;DHT22;10651;47.552;7.606;2023-04-30T14:52:10;19.10;99.90
20985;DHT22;10651;47.552;7.606;2023-04-30T14:54:35;19.10;99.90
20985;DHT22;10651;47.552;7.606;2023-04-30T14:57:01;19.10;99.90
20985;DHT22;10651;47.552;7.606;2023-04-30T14:59:28;19.10;99.90
20985;DHT22;10651;47.552;7.606;2023-04-30T15:01:54;19.00;99.90
20985;DHT22;10651;47.552;7.606;2023-04-30T15:04:25;19.00;99.90
20985;DHT22;10651;47.552;7.606;2023-04-30T15:06:51;19.00;99.90
20985;DHT22;10651;47.552;7.606;2023-04-30T15:09:17;19.00;99.90
20985;DHT22;10651;47.552;7.606;2023-04-30T15:11:50;19.00;99.90
20985;DHT22;10651;47.552;7.606;2023-04-30T15:14:54;19.00;99.90
20985;DHT22;10651;47.552;7.606;2023-04-30T15:27:57;18.90;99.90
20985;DHT22;10651;47.552;7.606;2023-04-30T15:30:54;18.90;99.90
20985;DHT22;10651;47.552;7.606;2023-04-30T15:39:58;18.90;99.90
20985;DHT22;10651;47.552;7.606;2023-04-30T15:53:08;18.80;99.90
20985;DHT22;10651;47.552;7.606;2023-04-30T15:55:42;18.80;99.90
20985;DHT22;10651;47.552;7.606;2023-04-30T15:58:23;18.80;99.90
20985;DHT22;10651;47.552;7.606;2023-04-30T16:01:04;18.70;99.90
20985;DHT22;10651;47.552;7.606;2023-04-30T16:03:30;18.60;99.90
20985;DHT22;10651;47.552;7.606;2023-04-30T16:05:57;18.60;99.90
20985;DHT22;10651;47.552;7.606;2023-04-30T16:11:11;18.70;99.90
20985;DHT22;10651;47.552;7.606;2023-04-30T16:13:49;18.70;99.90
20985;DHT22;10651;47.552;7.606;2023-04-30T16:16:15;18.70;99.90
20985;DHT22;10651;47.552;7.606;2023-04-30T16:18:41;18.70;99.90
20985;DHT22;10651;47.552;7.606;2023-04-30T16:21:07;18.60;99.90
20985;DHT22;10651;47.552;7.606;2023-04-30T16:23:39;18.80;99.90
20985;DHT22;10651;47.552;7.606;2023-04-30T16:26:20;18.80;99.90
20985;DHT22;10651;47.552;7.606;2023-04-30T16:28:50;18.70;99.90
20985;DHT22;10651;47.552;7.606;2023-04-30T16:31:25;18.70;99.90
20985;DHT22;10651;47.552;7.606;2023-04-30T16:34:03;18.70;99.90
20985;DHT22;10651;47.552;7.606;2023-04-30T16:36:39;18.70;99.90
20985;DHT22;10651;47.552;7.606;2023-04-30T16:39:05;18.70;99.90
20985;DHT22;10651;47.552;7.606;2023-04-30T16:41:31;18.70;99.90
20985;DHT22;10651;47.552;7.606;2023-04-30T16:43:57;18.60;99.90
20985;DHT22;10651;47.552;7.606;2023-04-30T16:46:23;18.60;99.90
20985;DHT22;10651;47.552;7.606;2023-04-30T16:48:49;18.60;99.90
20985;DHT22;10651;47.552;7.606;2023-04-30T16:51:15;18.60;99.90
20985;DHT22;10651;47.552;7.606;2023-04-30T16:53:41;18.60;99.90
20985;DHT22;10651;47.552;7.606;2023-04-30T16:56:07;18.60;99.90
20985;DHT22;10651;47.552;7.606;2023-04-30T16:58:32;18.50;99.90
20985;DHT22;10651;47.552;7.606;2023-04-30T17:00:59;18.60;99.90
20985;DHT22;10651;47.552;7.606;2023-04-30T17:03:25;18.50;99.90
20985;DHT22;10651;47.552;7.606;2023-04-30T17:05:51;18.60;99.90
20985;DHT22;10651;47.552;7.606;2023-04-30T17:08:18;18.50;99.90
20985;DHT22;10651;47.552;7.606;2023-04-30T17:10:46;18.50;99.90
20985;DHT22;10651;47.552;7.606;2023-04-30T17:13:12;18.50;99.90
20985;DHT22;10651;47.552;7.606;2023-04-30T17:15:39;18.50;99.90
20985;DHT22;10651;47.552;7.606;2023-04-30T17:18:05;18.40;99.90
20985;DHT22;10651;47.552;7.606;2023-04-30T17:20:31;18.20;99.90
20985;DHT22;10651;47.552;7.606;2023-04-30T17:22:56;18.20;99.90
20985;DHT22;10651;47.552;7.606;2023-04-30T17:25:24;18.20;99.90
20985;DHT22;10651;47.552;7.606;2023-04-30T17:27:54;18.20;99.90
20985;DHT22;10651;47.552;7.606;2023-04-30T17:30:21;18.20;99.90
20985;DHT22;10651;47.552;7.606;2023-04-30T17:32:47;18.10;99.90
20985;DHT22;10651;47.552;7.606;2023-04-30T17:35:13;18.00;99.90
20985;DHT22;10651;47.552;7.606;2023-04-30T17:37:41;18.00;99.90
20985;DHT22;10651;47.552;7.606;2023-04-30T17:40:16;18.00;99.90
20985;DHT22;10651;47.552;7.606;2023-04-30T17:42:42;18.00;99.90
20985;DHT22;10651;47.552;7.606;2023-04-30T17:45:08;18.00;99.90
20985;DHT22;10651;47.552;7.606;2023-04-30T17:47:37;18.00;99.90
20985;DHT22;10651;47.552;7.606;2023-04-30T17:50:06;18.00;99.90
20985;DHT22;10651;47.552;7.606;2023-04-30T17:56:20;17.90;99.90
20985;DHT22;10651;47.552;7.606;2023-04-30T17:59:42;17.80;99.90
20985;DHT22;10651;47.552;7.606;2023-04-30T18:02:25;17.80;99.90
20985;DHT22;10651;47.552;7.606;2023-04-30T18:05:02;17.70;99.90
20985;DHT22;10651;47.552;7.606;2023-04-30T18:11:12;17.70;99.90
20985;DHT22;10651;47.552;7.606;2023-04-30T18:21:34;17.70;99.90
20985;DHT22;10651;47.552;7.606;2023-04-30T18:24:08;17.70;99.90
20985;DHT22;10651;47.552;7.606;2023-04-30T18:26:47;17.60;99.90
20985;DHT22;10651;47.552;7.606;2023-04-30T18:29:16;17.60;99.90
20985;DHT22;10651;47.552;7.606;2023-04-30T18:32:07;17.60;99.90
20985;DHT22;10651;47.552;7.606;2023-04-30T18:34:49;17.60;99.90
20985;DHT22;10651;47.552;7.606;2023-04-30T18:37:20;17.60;99.90
20985;DHT22;10651;47.552;7.606;2023-04-30T18:39:51;17.60;99.90
20985;DHT22;10651;47.552;7.606;2023-04-30T18:42:43;17.60;99.90
20985;DHT22;10651;47.552;7.606;2023-04-30T18:45:22;17.60;99.90
20985;DHT22;10651;47.552;7.606;2023-04-30T18:47:53;17.50;99.90
20985;DHT22;10651;47.552;7.606;2023-04-30T18:53:20;17.40;99.90
20985;DHT22;10651;47.552;7.606;2023-04-30T18:55:52;17.40;99.90
20985;DHT22;10651;47.552;7.606;2023-04-30T18:58:30;17.40;99.90
20985;DHT22;10651;47.552;7.606;2023-04-30T19:01:08;17.30;99.90
20985;DHT22;10651;47.552;7.606;2023-04-30T19:03:58;17.30;99.90
20985;DHT22;10651;47.552;7.606;2023-04-30T19:06:39;17.30;99.90
20985;DHT22;10651;47.552;7.606;2023-04-30T19:09:18;17.30;99.90
20985;DHT22;10651;47.552;7.606;2023-04-30T19:11:55;17.30;99.90
20985;DHT22;10651;47.552;7.606;2023-04-30T19:17:50;17.30;99.90
20985;DHT22;10651;47.552;7.606;2023-04-30T19:20:35;17.30;99.90
20985;DHT22;10651;47.552;7.606;2023-04-30T19:23:28;17.20;99.90
20985;DHT22;10651;47.552;7.606;2023-04-30T19:25:58;17.20;99.90
20985;DHT22;10651;47.552;7.606;2023-04-30T19:28:27;17.20;99.90
20985;DHT22;10651;47.552;7.606;2023-04-30T19:34:39;17.10;99.90
20985;DHT22;10651;47.552;7.606;2023-04-30T19:37:24;17.10;99.90
20985;DHT22;10651;47.552;7.606;2023-04-30T19:40:48;17.00;99.90
20985;DHT22;10651;47.552;7.606;2023-04-30T19:43:53;17.00;99.90
20985;DHT22;10651;47.552;7.606;2023-04-30T20:00:14;16.90;99.90
20985;DHT22;10651;47.552;7.606;2023-04-30T20:06:22;16.80;99.90
20985;DHT22;10651;47.552;7.606;2023-04-30T20:30:01;16.60;99.90
20985;DHT22;10651;47.552;7.606;2023-04-30T20:32:29;16.50;99.90
20985;DHT22;10651;47.552;7.606;2023-04-30T20:34:55;16.50;99.90
20985;DHT22;10651;47.552;7.606;2023-04-30T20:37:22;16.60;99.90
20985;DHT22;10651;47.552;7.606;2023-04-30T20:39:48;16.50;99.90
20985;DHT22;10651;47.552;7.606;2023-04-30T20:42:14;16.50;99.90
20985;DHT22;10651;47.552;7.606;2023-04-30T20:44:39;16.50;99.90
20985;DHT22;10651;47.552;7.606;2023-04-30T20:47:05;16.40;99.90
20985;DHT22;10651;47.552;7.606;2023-04-30T20:49:32;16.50;99.90
20985;DHT22;10651;47.552;7.606;2023-04-30T20:51:58;16.50;99.90
20985;DHT22;10651;47.552;7.606;2023-04-30T20:54:24;16.40;99.90
20985;DHT22;10651;47.552;7.606;2023-04-30T20:56:50;16.40;99.90
20985;DHT22;10651;47.552;7.606;2023-04-30T20:59:18;16.40;99.90
20985;DHT22;10651;47.552;7.606;2023-04-30T21:01:44;16.40;99.90
20985;DHT22;10651;47.552;7.606;2023-04-30T21:04:09;16.40;99.90
20985;DHT22;10651;47.552;7.606;2023-04-30T21:06:35;16.40;99.90
20985;DHT22;10651;47.552;7.606;2023-04-30T21:09:01;16.40;99.90
20985;DHT22;10651;47.552;7.606;2023-04-30T21:11:27;16.40;99.90
20985;DHT22;10651;47.552;7.606;2023-04-30T21:13:56;16.40;99.90
20985;DHT22;10651;47.552;7.606;2023-04-30T21:16:22;16.40;99.90
20985;DHT22;10651;47.552;7.606;2023-04-30T21:18:47;16.40;99.90
20985;DHT22;10651;47.552;7.606;2023-04-30T21:21:13;16.30;99.90
20985;DHT22;10651;47.552;7.606;2023-04-30T21:23:40;16.30;99.90
20985;DHT22;10651;47.552;7.606;2023-04-30T21:26:06;16.30;99.90
20985;DHT22;10651;47.552;7.606;2023-04-30T21:28:31;16.30;99.90
20985;DHT22;10651;47.552;7.606;2023-04-30T21:31:05;16.20;99.90
20985;DHT22;10651;47.552;7.606;2023-04-30T21:33:35;16.20;99.90
20985;DHT22;10651;47.552;7.606;2023-04-30T21:36:04;16.20;99.90
20985;DHT22;10651;47.552;7.606;2023-04-30T21:38:33;16.20;99.90
20985;DHT22;10651;47.552;7.606;2023-04-30T21:40:59;16.20;99.90
20985;DHT22;10651;47.552;7.606;2023-04-30T21:43:24;16.10;99.90
20985;DHT22;10651;47.552;7.606;2023-04-30T21:45:50;16.10;99.90
20985;DHT22;10651;47.552;7.606;2023-04-30T21:48:17;16.10;99.90
20985;DHT22;10651;47.552;7.606;2023-04-30T21:50:43;16.10;99.90
20985;DHT22;10651;47.552;7.606;2023-04-30T21:53:09;16.10;99.90
20985;DHT22;10651;47.552;7.606;2023-04-30T21:55:35;16.10;99.90
20985;DHT22;10651;47.552;7.606;2023-04-30T21:58:01;16.10;99.90
20985;DHT22;10651;47.552;7.606;2023-04-30T22:00:26;16.10;99.90
20985;DHT22;10651;47.552;7.606;2023-04-30T22:02:52;16.10;99.90
20985;DHT22;10651;47.552;7.606;2023-04-30T22:05:21;16.10;99.90
20985;DHT22;10651;47.552;7.606;2023-04-30T22:07:47;16.00;99.90
20985;DHT22;10651;47.552;7.606;2023-04-30T22:10:13;16.10;99.90
20985;DHT22;10651;47.552;7.606;2023-04-30T22:12:39;16.00;99.90
20985;DHT22;10651;47.552;7.606;2023-04-30T22:15:06;16.00;99.90
20985;DHT22;10651;47.552;7.606;2023-04-30T22:17:32;16.00;99.90
20985;DHT22;10651;47.552;7.606;2023-04-30T22:19:58;16.00;99.90
20985;DHT22;10651;47.552;7.606;2023-04-30T22:22:23;15.90;99.90
20985;DHT22;10651;47.552;7.606;2023-04-30T22:24:49;16.00;99.90
20985;DHT22;10651;47.552;7.606;2023-04-30T22:27:15;15.90;99.90
